TimeEST,TemperatureF,Dew PointF,Humidity,Sea Level PressureIn,VisibilityMPH,Wind Direction,Wind SpeedMPH,Gust SpeedMPH,PrecipitationIn,Events,Conditions,WindDirDegrees,DateUTC
12:54 AM,50.0,44.1,80,30.00,10.0,NE,4.6,-,N/A,,Overcast,50,2012-11-05 05:54:00
1:54 AM,51.1,39.9,66,30.02,10.0,NNE,12.7,-,N/A,,Overcast,30,2012-11-05 06:54:00
2:54 AM,48.9,39.0,69,30.02,10.0,NE,8.1,-,N/A,,Overcast,50,2012-11-05 07:54:00
3:54 AM,48.0,37.0,66,30.03,10.0,ENE,6.9,-,N/A,,Overcast,60,2012-11-05 08:54:00
4:54 AM,45.0,34.0,65,30.06,10.0,NE,6.9,-,N/A,,Clear,40,2012-11-05 09:54:00
5:54 AM,43.0,35.1,74,30.06,10.0,NNE,3.5,-,N/A,,Clear,30,2012-11-05 10:54:00
6:54 AM,37.9,35.1,89,30.08,10.0,Calm,Calm,-,N/A,,Clear,0,2012-11-05 11:54:00
7:54 AM,44.1,35.1,71,30.09,10.0,NE,5.8,-,N/A,,Clear,40,2012-11-05 12:54:00
8:54 AM,48.0,33.1,56,30.09,10.0,NE,9.2,-,N/A,,Clear,40,2012-11-05 13:54:00
9:54 AM,51.1,33.1,50,30.10,10.0,NE,10.4,-,N/A,,Clear,50,2012-11-05 14:54:00
10:54 AM,54.0,33.1,45,30.09,10.0,NNE,10.4,-,N/A,,Clear,30,2012-11-05 15:54:00
11:54 AM,57.0,30.9,37,30.07,10.0,North,6.9,-,N/A,,Clear,10,2012-11-05 16:54:00
12:54 PM,57.0,30.0,36,30.04,10.0,Variable,3.5,-,N/A,,Clear,0,2012-11-05 17:54:00
1:54 PM,59.0,28.9,32,30.02,10.0,Variable,3.5,-,N/A,,Clear,0,2012-11-05 18:54:00
2:54 PM,59.0,30.0,33,30.01,10.0,ENE,3.5,-,N/A,,Clear,60,2012-11-05 19:54:00
3:54 PM,59.0,30.0,33,30.01,10.0,Calm,Calm,-,N/A,,Clear,0,2012-11-05 20:54:00
4:54 PM,55.0,28.9,37,30.01,10.0,ENE,8.1,-,N/A,,Clear,60,2012-11-05 21:54:00
5:54 PM,51.1,30.0,44,30.03,10.0,Calm,Calm,-,N/A,,Clear,0,2012-11-05 22:54:00
6:54 PM,46.0,32.0,58,30.05,10.0,Calm,Calm,-,N/A,,Clear,0,2012-11-05 23:54:00
7:54 PM,46.9,32.0,56,30.05,10.0,Calm,Calm,-,N/A,,Clear,0,2012-11-06 00:54:00
8:54 PM,46.0,33.1,61,30.06,10.0,Calm,Calm,-,N/A,,Clear,0,2012-11-06 01:54:00
9:54 PM,44.1,33.1,65,30.08,10.0,Calm,Calm,-,N/A,,Clear,0,2012-11-06 02:54:00
10:54 PM,45.0,30.9,58,30.07,10.0,NNE,3.5,-,N/A,,Clear,20,2012-11-06 03:54:00
11:54 PM,43.0,30.9,62,30.07,10.0,ENE,3.5,-,N/A,,Clear,60,2012-11-06 04:54:00